Lake Charles — WDF4884 — position and weather

sailwx.info

Track history (hours):
 
Tides and Currents Weather Stations Pressure Air Temp Water Temp Dewpoint Dewpoint Depression Visibility Wind Speed Wind Dir Waves Ship Positions

Lake Charles

Owner: Canal Barge Company, Inc., Belle Chasse, LA. More information available from US FCC via Universal Licensing System and Coast Guard Vessel Documentation Center.

Last reported at 2017-Sep-19 04:29 UTC. Time now 2017-Sep-20 22:11 UTC.
Position N 31°49' W 091°21'.

Length 23 m; draft 3 m.

Type: Tow > 200 m length. MMSI: 367456860.

Date/timePositionNaut miles runAvg speedWind from/ knotsBaromVisibWave heightAir tempDewpointWater temp
2017-Sep-19 04:29N 31°49' W 091°21'11 6.0
2017-Sep-19 02:42N 31°56' W 091°12'1 6.9
2017-Sep-19 02:31N 31°58' W 091°11'5 6.0
2017-Sep-19 01:39N 31°60' W 091°06'1 6.2
2017-Sep-19 01:30N 32°00' W 091°05'3 6.9
2017-Sep-19 01:00N 32°03' W 091°03'3 6.3
2017-Sep-19 00:30N 32°06' W 091°06'2 3.8
2017-Sep-18 23:54N 32°08' W 091°04'3 7.0
2017-Sep-18 23:31N 32°07' W 091°01'4 7.1
2017-Sep-18 23:01N 32°11' W 090°60'4 7.3
2017-Sep-18 22:31N 32°14' W 090°59'4 7.3
2017-Sep-18 22:01N 32°17' W 090°56'4 7.2
2017-Sep-18 21:30N 32°20' W 090°54'2 4.3
2017-Sep-18 21:01N 32°22' W 090°53'1 2.7
2017-Sep-18 20:31N 32°23' W 090°53'1 1.0
2017-Sep-18 20:01N 32°23' W 090°54'0 0.1
2017-Sep-18 19:31N 32°23' W 090°54'0 0.0
2017-Sep-18 19:01N 32°23' W 090°54'0 0.0
2017-Sep-18 18:31N 32°23' W 090°54'0 0.0
2017-Sep-18 18:00N 32°23' W 090°54'0 0.0
2017-Sep-18 17:31N 32°23' W 090°54'0 0.0
2017-Sep-18 17:01N 32°23' W 090°54'0 0.0
2017-Sep-18 16:31N 32°23' W 090°54'0 0.0
2017-Sep-18 16:01N 32°23' W 090°54'0 0.0
2017-Sep-18 15:31N 32°23' W 090°54'0 0.0
2017-Sep-18 15:01N 32°23' W 090°54'0 0.0
2017-Sep-18 14:31N 32°23' W 090°54'0 0.0
2017-Sep-18 14:01N 32°23' W 090°54'0 0.0
2017-Sep-18 13:31N 32°23' W 090°54'0 0.0
2017-Sep-18 13:01N 32°23' W 090°54'0 0.0
2017-Sep-18 12:31N 32°23' W 090°54'0 0.0
2017-Sep-18 12:01N 32°23' W 090°54'0 0.0
2017-Sep-18 11:30N 32°23' W 090°54'0 0.0
2017-Sep-18 11:01N 32°23' W 090°54'0 0.0
2017-Sep-18 10:31N 32°23' W 090°54'0 0.0
2017-Sep-18 10:01N 32°23' W 090°54'0 0.0
2017-Sep-18 09:31N 32°23' W 090°54'0 0.0
2017-Sep-18 09:01N 32°23' W 090°54'0 0.0
2017-Sep-18 08:31N 32°23' W 090°54'0 0.0
2017-Sep-18 08:01N 32°23' W 090°54'1 1.5
2017-Sep-18 07:30N 32°23' W 090°53'2 3.3
2017-Sep-18 07:01N 32°22' W 090°53'2 3.8
2017-Sep-18 06:31N 32°20' W 090°54'3 5.4
2017-Sep-18 06:01N 32°18' W 090°56'3 5.2
2017-Sep-18 05:31N 32°16' W 090°58'2 4.6
2017-Sep-18 05:01N 32°14' W 090°59'3 5.1
2017-Sep-18 04:30N 32°11' W 090°60'2 4.7
2017-Sep-18 04:00N 32°09' W 091°00'2 4.6
2017-Sep-18 03:31N 32°07' W 091°02'2 4.9
2017-Sep-18 03:00N 32°08' W 091°05'2 3.7
2017-Sep-18 02:30N 32°07' W 091°06'5 1.9
2017-Sep-18 00:07N 32°03' W 091°04'1 5.7
2017-Sep-18 00:00N 32°02' W 091°04'  
2017-Sep-11 17:33N 29°34' W 090°28'0 7.6
2017-Sep-11 17:29N 29°34' W 090°29'4 7.8
2017-Sep-11 17:00N 29°34' W 090°33'3 7.0
2017-Sep-11 16:31N 29°35' W 090°37'4 7.0
2017-Sep-11 16:01N 29°36' W 090°41'2 3.8
2017-Sep-11 15:31N 29°36' W 090°43'2 5.0
2017-Sep-11 15:00N 29°34' W 090°45'3 6.6
2017-Sep-11 14:31N 29°32' W 090°48'4 7.2
2017-Sep-11 13:53N 29°32' W 090°53'61 5.7
2017-Sep-11 03:07N 29°50' W 092°00'1 7.2
2017-Sep-11 02:55N 29°49' W 092°02'3 7.5
2017-Sep-11 02:30N 29°48' W 092°05'4 7.0
2017-Sep-11 01:57N 29°47' W 092°09'3 5.6
2017-Sep-11 01:30N 29°47' W 092°12'3 5.2
2017-Sep-11 01:01N 29°48' W 092°15'3 6.6
2017-Sep-11 00:30N 29°50' W 092°18'40 7.0
2017-Sep-10 18:42N 29°56' W 093°04'1 5.4
2017-Sep-10 18:29N 29°56' W 093°06'2 4.2
2017-Sep-10 18:00N 29°56' W 093°08'3 6.1
2017-Sep-10 17:30N 29°58' W 093°11'4 7.1
2017-Sep-10 17:01N 30°00' W 093°14'2 4.1
2017-Sep-10 16:31N 30°02' W 093°15'0 0.2
2017-Sep-10 16:01N 30°02' W 093°15'2 3.4
2017-Sep-10 15:30N 30°04' W 093°16'2 4.7
2017-Sep-10 15:01N 30°05' W 093°18'1 1.4
2017-Sep-10 14:01N 30°06' W 093°19'0 0.0
2017-Sep-10 12:50N 30°06' W 093°19'0 0.0
2017-Sep-10 12:30N 30°06' W 093°19'0 0.0
2017-Sep-10 11:57N 30°06' W 093°19'2 1.4
2017-Sep-10 10:17N 30°04' W 093°21'1 5.1
2017-Sep-10 10:01N 30°04' W 093°22'2 4.0
2017-Sep-10 09:31N 30°04' W 093°25'3 5.8
2017-Sep-10 09:01N 30°04' W 093°28'3 6.2
2017-Sep-10 08:30N 30°04' W 093°31'1 2.1
2017-Sep-10 07:58N 30°04' W 093°33'0 0.0
2017-Sep-10 07:31N 30°04' W 093°33'0 0.0
2017-Sep-10 07:00N 30°04' W 093°33'0 0.0
2017-Sep-10 06:31N 30°04' W 093°33'0 0.0
2017-Sep-10 06:00N 30°04' W 093°33'0 0.0
2017-Sep-10 05:29N 30°04' W 093°33'0 0.0
2017-Sep-10 05:00N 30°04' W 093°33'0 0.0
2017-Sep-10 04:30N 30°04' W 093°33'0 0.0
2017-Sep-10 04:01N 30°04' W 093°33'0 0.0
2017-Sep-10 03:31N 30°04' W 093°33'0 0.0
2017-Sep-10 03:01N 30°04' W 093°33'0 0.0
2017-Sep-10 02:30N 30°04' W 093°33'0 0.0
2017-Sep-10 02:01N 30°04' W 093°33'0 0.0
2017-Sep-10 01:31N 30°04' W 093°33'0 0.0
2017-Sep-10 01:01N 30°04' W 093°33'0 0.0
2017-Sep-10 00:31N 30°04' W 093°33'0 0.0
2017-Sep-10 00:01N 30°04' W 093°33'0 0.0
2017-Sep-09 23:31N 30°04' W 093°33'0 0.0
2017-Sep-09 23:01N 30°04' W 093°33'0 0.0
2017-Sep-09 22:31N 30°04' W 093°33'0 0.0
2017-Sep-09 22:01N 30°04' W 093°33'0 0.0
2017-Sep-09 21:31N 30°04' W 093°33'0 0.0
2017-Sep-09 21:00N 30°04' W 093°33'0 0.0
2017-Sep-09 20:31N 30°04' W 093°33'0 0.0
2017-Sep-09 20:00N 30°04' W 093°33'0 0.0
2017-Sep-09 19:31N 30°04' W 093°33'0 0.0
2017-Sep-09 19:00N 30°04' W 093°33'0 0.0
2017-Sep-09 18:31N 30°04' W 093°33'0 0.0
2017-Sep-09 18:00N 30°04' W 093°33'0 0.0
2017-Sep-09 17:31N 30°04' W 093°33'0 0.6
2017-Sep-09 17:00N 30°04' W 093°33'3 5.4
2017-Sep-09 16:31N 30°04' W 093°30'3 6.6
2017-Sep-09 16:00N 30°04' W 093°26'2 4.4
2017-Sep-09 15:30N 30°04' W 093°24'0 0.0
2017-Sep-09 15:01N 30°04' W 093°24'2 3.5
2017-Sep-09 14:29N 30°04' W 093°26'4 7.5
2017-Sep-09 13:58N 30°04' W 093°30'2 2.4
2017-Sep-09 13:04N 30°04' W 093°33'0 0.0
2017-Sep-09 13:00N 30°04' W 093°33'0 0.0
2017-Sep-09 12:31N 30°04' W 093°33'0 0.0
2017-Sep-09 12:01N 30°04' W 093°33'0 0.0
2017-Sep-09 11:29N 30°04' W 093°33'0 0.0
2017-Sep-09 10:57N 30°04' W 093°33'0 0.0
2017-Sep-09 10:26N 30°04' W 093°33'0 0.0
2017-Sep-09 09:58N 30°04' W 093°33'0 0.0
2017-Sep-09 09:30N 30°04' W 093°33'0 0.0
2017-Sep-09 08:58N 30°04' W 093°33'0 0.0
2017-Sep-09 08:30N 30°04' W 093°33'0 0.0
2017-Sep-09 07:59N 30°04' W 093°33'0 0.0
2017-Sep-09 07:30N 30°04' W 093°33'0 0.0
2017-Sep-09 07:01N 30°04' W 093°33'0 0.0
2017-Sep-09 06:31N 30°04' W 093°33'0 0.0
2017-Sep-09 04:36N 30°04' W 093°33'0 0.0
2017-Sep-09 04:29N 30°04' W 093°33'  
Track history (hours):
 
Tides and Currents Weather Stations Pressure Air Temp Water Temp Dewpoint Dewpoint Depression Visibility Wind Speed Wind Dir Waves Ship Positions

Lake Charles

Owner: Canal Barge Company, Inc., Belle Chasse, LA. More information available from US FCC via Universal Licensing System and Coast Guard Vessel Documentation Center.

Last reported at 2017-Sep-19 04:29 UTC. Time now 2017-Sep-20 22:11 UTC.
Position N 31°49' W 091°21'.

Length 23 m; draft 3 m.

Type: Tow > 200 m length. MMSI: 367456860.

Date/timePositionNaut miles runAvg speedWind from/ knotsBaromVisibWave heightAir tempDewpointWater temp
2017-Sep-19 04:29N 31°49' W 091°21'11 6.0
2017-Sep-19 02:42N 31°56' W 091°12'1 6.9
2017-Sep-19 02:31N 31°58' W 091°11'5 6.0
2017-Sep-19 01:39N 31°60' W 091°06'1 6.2
2017-Sep-19 01:30N 32°00' W 091°05'3 6.9
2017-Sep-19 01:00N 32°03' W 091°03'3 6.3
2017-Sep-19 00:30N 32°06' W 091°06'2 3.8
2017-Sep-18 23:54N 32°08' W 091°04'3 7.0
2017-Sep-18 23:31N 32°07' W 091°01'4 7.1
2017-Sep-18 23:01N 32°11' W 090°60'4 7.3
2017-Sep-18 22:31N 32°14' W 090°59'4 7.3
2017-Sep-18 22:01N 32°17' W 090°56'4 7.2
2017-Sep-18 21:30N 32°20' W 090°54'2 4.3
2017-Sep-18 21:01N 32°22' W 090°53'1 2.7
2017-Sep-18 20:31N 32°23' W 090°53'1 1.0
2017-Sep-18 20:01N 32°23' W 090°54'0 0.1
2017-Sep-18 19:31N 32°23' W 090°54'0 0.0
2017-Sep-18 19:01N 32°23' W 090°54'0 0.0
2017-Sep-18 18:31N 32°23' W 090°54'0 0.0
2017-Sep-18 18:00N 32°23' W 090°54'0 0.0
2017-Sep-18 17:31N 32°23' W 090°54'0 0.0
2017-Sep-18 17:01N 32°23' W 090°54'0 0.0
2017-Sep-18 16:31N 32°23' W 090°54'0 0.0
2017-Sep-18 16:01N 32°23' W 090°54'0 0.0
2017-Sep-18 15:31N 32°23' W 090°54'0 0.0
2017-Sep-18 15:01N 32°23' W 090°54'0 0.0
2017-Sep-18 14:31N 32°23' W 090°54'0 0.0
2017-Sep-18 14:01N 32°23' W 090°54'0 0.0
2017-Sep-18 13:31N 32°23' W 090°54'0 0.0
2017-Sep-18 13:01N 32°23' W 090°54'0 0.0
2017-Sep-18 12:31N 32°23' W 090°54'0 0.0
2017-Sep-18 12:01N 32°23' W 090°54'0 0.0
2017-Sep-18 11:30N 32°23' W 090°54'0 0.0
2017-Sep-18 11:01N 32°23' W 090°54'0 0.0
2017-Sep-18 10:31N 32°23' W 090°54'0 0.0
2017-Sep-18 10:01N 32°23' W 090°54'0 0.0
2017-Sep-18 09:31N 32°23' W 090°54'0 0.0
2017-Sep-18 09:01N 32°23' W 090°54'0 0.0
2017-Sep-18 08:31N 32°23' W 090°54'0 0.0
2017-Sep-18 08:01N 32°23' W 090°54'1 1.5
2017-Sep-18 07:30N 32°23' W 090°53'2 3.3
2017-Sep-18 07:01N 32°22' W 090°53'2 3.8
2017-Sep-18 06:31N 32°20' W 090°54'3 5.4
2017-Sep-18 06:01N 32°18' W 090°56'3 5.2
2017-Sep-18 05:31N 32°16' W 090°58'2 4.6
2017-Sep-18 05:01N 32°14' W 090°59'3 5.1
2017-Sep-18 04:30N 32°11' W 090°60'2 4.7
2017-Sep-18 04:00N 32°09' W 091°00'2 4.6
2017-Sep-18 03:31N 32°07' W 091°02'2 4.9
2017-Sep-18 03:00N 32°08' W 091°05'2 3.7
2017-Sep-18 02:30N 32°07' W 091°06'5 1.9
2017-Sep-18 00:07N 32°03' W 091°04'1 5.7
2017-Sep-18 00:00N 32°02' W 091°04'  
2017-Sep-11 17:33N 29°34' W 090°28'0 7.6
2017-Sep-11 17:29N 29°34' W 090°29'4 7.8
2017-Sep-11 17:00N 29°34' W 090°33'3 7.0
2017-Sep-11 16:31N 29°35' W 090°37'4 7.0
2017-Sep-11 16:01N 29°36' W 090°41'2 3.8
2017-Sep-11 15:31N 29°36' W 090°43'2 5.0
2017-Sep-11 15:00N 29°34' W 090°45'3 6.6
2017-Sep-11 14:31N 29°32' W 090°48'4 7.2
2017-Sep-11 13:53N 29°32' W 090°53'61 5.7
2017-Sep-11 03:07N 29°50' W 092°00'1 7.2
2017-Sep-11 02:55N 29°49' W 092°02'3 7.5
2017-Sep-11 02:30N 29°48' W 092°05'4 7.0
2017-Sep-11 01:57N 29°47' W 092°09'3 5.6
2017-Sep-11 01:30N 29°47' W 092°12'3 5.2
2017-Sep-11 01:01N 29°48' W 092°15'3 6.6
2017-Sep-11 00:30N 29°50' W 092°18'40 7.0
2017-Sep-10 18:42N 29°56' W 093°04'1 5.4
2017-Sep-10 18:29N 29°56' W 093°06'2 4.2
2017-Sep-10 18:00N 29°56' W 093°08'3 6.1
2017-Sep-10 17:30N 29°58' W 093°11'4 7.1
2017-Sep-10 17:01N 30°00' W 093°14'2 4.1
2017-Sep-10 16:31N 30°02' W 093°15'0 0.2
2017-Sep-10 16:01N 30°02' W 093°15'2 3.4
2017-Sep-10 15:30N 30°04' W 093°16'2 4.7
2017-Sep-10 15:01N 30°05' W 093°18'1 1.4
2017-Sep-10 14:01N 30°06' W 093°19'0 0.0
2017-Sep-10 12:50N 30°06' W 093°19'0 0.0
2017-Sep-10 12:30N 30°06' W 093°19'0 0.0
2017-Sep-10 11:57N 30°06' W 093°19'2 1.4
2017-Sep-10 10:17N 30°04' W 093°21'1 5.1
2017-Sep-10 10:01N 30°04' W 093°22'2 4.0
2017-Sep-10 09:31N 30°04' W 093°25'3 5.8
2017-Sep-10 09:01N 30°04' W 093°28'3 6.2
2017-Sep-10 08:30N 30°04' W 093°31'1 2.1
2017-Sep-10 07:58N 30°04' W 093°33'0 0.0
2017-Sep-10 07:31N 30°04' W 093°33'0 0.0
2017-Sep-10 07:00N 30°04' W 093°33'0 0.0
2017-Sep-10 06:31N 30°04' W 093°33'0 0.0
2017-Sep-10 06:00N 30°04' W 093°33'0 0.0
2017-Sep-10 05:29N 30°04' W 093°33'0 0.0
2017-Sep-10 05:00N 30°04' W 093°33'0 0.0
2017-Sep-10 04:30N 30°04' W 093°33'0 0.0
2017-Sep-10 04:01N 30°04' W 093°33'0 0.0
2017-Sep-10 03:31N 30°04' W 093°33'0 0.0
2017-Sep-10 03:01N 30°04' W 093°33'0 0.0
2017-Sep-10 02:30N 30°04' W 093°33'0 0.0
2017-Sep-10 02:01N 30°04' W 093°33'0 0.0
2017-Sep-10 01:31N 30°04' W 093°33'0 0.0
2017-Sep-10 01:01N 30°04' W 093°33'0 0.0
2017-Sep-10 00:31N 30°04' W 093°33'0 0.0
2017-Sep-10 00:01N 30°04' W 093°33'0 0.0
2017-Sep-09 23:31N 30°04' W 093°33'0 0.0
2017-Sep-09 23:01N 30°04' W 093°33'0 0.0
2017-Sep-09 22:31N 30°04' W 093°33'0 0.0
2017-Sep-09 22:01N 30°04' W 093°33'0 0.0
2017-Sep-09 21:31N 30°04' W 093°33'0 0.0
2017-Sep-09 21:00N 30°04' W 093°33'0 0.0
2017-Sep-09 20:31N 30°04' W 093°33'0 0.0
2017-Sep-09 20:00N 30°04' W 093°33'0 0.0
2017-Sep-09 19:31N 30°04' W 093°33'0 0.0
2017-Sep-09 19:00N 30°04' W 093°33'0 0.0
2017-Sep-09 18:31N 30°04' W 093°33'0 0.0
2017-Sep-09 18:00N 30°04' W 093°33'0 0.0
2017-Sep-09 17:31N 30°04' W 093°33'0 0.6
2017-Sep-09 17:00N 30°04' W 093°33'3 5.4
2017-Sep-09 16:31N 30°04' W 093°30'3 6.6
2017-Sep-09 16:00N 30°04' W 093°26'2 4.4
2017-Sep-09 15:30N 30°04' W 093°24'0 0.0
2017-Sep-09 15:01N 30°04' W 093°24'2 3.5
2017-Sep-09 14:29N 30°04' W 093°26'4 7.5
2017-Sep-09 13:58N 30°04' W 093°30'2 2.4
2017-Sep-09 13:04N 30°04' W 093°33'0 0.0
2017-Sep-09 13:00N 30°04' W 093°33'0 0.0
2017-Sep-09 12:31N 30°04' W 093°33'0 0.0
2017-Sep-09 12:01N 30°04' W 093°33'0 0.0
2017-Sep-09 11:29N 30°04' W 093°33'0 0.0
2017-Sep-09 10:57N 30°04' W 093°33'0 0.0
2017-Sep-09 10:26N 30°04' W 093°33'0 0.0
2017-Sep-09 09:58N 30°04' W 093°33'0 0.0
2017-Sep-09 09:30N 30°04' W 093°33'0 0.0
2017-Sep-09 08:58N 30°04' W 093°33'0 0.0
2017-Sep-09 08:30N 30°04' W 093°33'0 0.0
2017-Sep-09 07:59N 30°04' W 093°33'0 0.0
2017-Sep-09 07:30N 30°04' W 093°33'0 0.0
2017-Sep-09 07:01N 30°04' W 093°33'0 0.0
2017-Sep-09 06:31N 30°04' W 093°33'0 0.0
2017-Sep-09 04:36N 30°04' W 093°33'0 0.0
2017-Sep-09 04:29N 30°04' W 093°33'  

Dump ship's entire track history